Time;durP1;ratioP1;P1;durP2;ratioP2;P2;SDS_P1;SDS_P2;PMS_P1;PMS_P2;Temp;Humidity;BMP_temperature;BMP_pressure;BME280_temperature;BME280_humidity;BME280_pressure;Samples;Min_cycle;Max_cycle;Signal;HPM_P1;HPM_P2
2023/08/06 00:02:18;;;;;;;;;;;;;;;25.73;60.04;95845.52;591103;240;62559;-72
2023/08/06 00:04:46;;;;;;;;;;;;;;;25.72;59.87;95843.92;591104;240;64881;-72
2023/08/06 00:07:13;;;;;;;;;;;;;;;25.73;59.88;95834.75;590996;240;67234;-72
2023/08/06 00:09:41;;;;;;;;;;;;;;;25.73;61.07;95826.68;591101;240;64607;-72
2023/08/06 00:12:08;;;;;;;;;;;;;;;25.72;61.32;95822.39;591089;240;67225;-72
2023/08/06 00:14:36;;;;;;;;;;;;;;;25.73;61.88;95825.88;591045;240;67231;-72
2023/08/06 00:17:04;;;;;;;;;;;;;;;25.72;60.23;95818.92;591105;240;64598;-72
2023/08/06 00:19:32;;;;;;;;;;;;;;;25.71;59.85;95815.45;591072;240;67111;-72
2023/08/06 00:22:01;;;;;;;;;;;;;;;25.71;59.75;95810.07;591087;240;66494;-72
2023/08/06 00:24:29;;;;;;;;;;;;;;;25.71;60.05;95826.22;591103;240;64615;-72
2023/08/06 00:26:56;;;;;;;;;;;;;;;25.72;59.77;95829.69;591052;240;66771;-72
2023/08/06 00:29:24;;;;;;;;;;;;;;;25.72;59.72;95832.37;591063;240;66890;-72
2023/08/06 00:31:51;;;;;;;;;;;;;;;25.72;59.73;95832.37;591064;240;62613;-72
2023/08/06 00:34:19;;;;;;;;;;;;;;;25.72;59.69;95837.76;591084;240;65097;-72
2023/08/06 00:36:46;;;;;;;;;;;;;;;25.71;62.25;95831.59;591106;240;66898;-73
2023/08/06 00:39:14;;;;;;;;;;;;;;;25.71;64.06;95831.59;591029;240;65549;-74
2023/08/06 00:41:41;;;;;;;;;;;;;;;25.72;64.98;95824.30;591077;240;68042;-74
2023/08/06 00:44:09;;;;;;;;;;;;;;;25.69;63.95;95823.06;591033;240;64860;-73
2023/08/06 00:46:36;;;;;;;;;;;;;;;25.69;64.65;95820.38;591031;240;64817;-73
2023/08/06 00:49:05;;;;;;;;;;;;;;;25.67;62.44;95823.41;591054;240;68057;-73
2023/08/06 00:51:33;;;;;;;;;;;;;;;25.68;62.41;95816.12;591047;240;67113;-73
2023/08/06 00:54:00;;;;;;;;;;;;;;;25.68;63.90;95819.59;591041;240;64716;-74
2023/08/06 00:56:27;;;;;;;;;;;;;;;25.68;64.88;95821.50;591077;240;66995;-73
2023/08/06 00:58:55;;;;;;;;;;;;;;;25.67;63.16;95825.28;591061;240;66947;-73
2023/08/06 01:01:23;;;;;;;;;;;;;;;25.67;62.54;95827.98;591031;240;64624;-73
2023/08/06 01:03:50;;;;;;;;;;;;;;;25.65;60.09;95822.94;591035;240;67923;-73
2023/08/06 01:06:19;;;;;;;;;;;;;;;25.67;63.33;95811.83;591051;240;67650;-73
2023/08/06 01:08:51;;;;;;;;;;;;;;;25.66;62.93;95810.27;586699;240;65859;-73
2023/08/06 01:11:20;;;;;;;;;;;;;;;25.67;62.58;95818.02;584431;242;67179;-72
2023/08/06 01:13:49;;;;;;;;;;;;;;;25.65;60.00;95812.18;584841;242;64639;-72
2023/08/06 01:16:18;;;;;;;;;;;;;;;25.67;61.22;95809.14;584818;242;64755;-72
2023/08/06 01:18:49;;;;;;;;;;;;;;;25.66;60.73;95797.59;584834;242;67657;-72
2023/08/06 01:21:17;;;;;;;;;;;;;;;25.67;59.68;95787.62;584848;242;67181;-73
2023/08/06 01:23:45;;;;;;;;;;;;;;;25.66;59.63;95786.84;584838;242;65639;-73
2023/08/06 01:26:30;;;;;;;;;;;;;;;25.68;59.53;95783.83;584798;242;67632;-73
2023/08/06 01:28:59;;;;;;;;;;;;;;;25.67;59.59;95783.05;584789;240;66914;-72
2023/08/06 01:31:31;;;;;;;;;;;;;;;25.68;59.47;95770.37;584796;242;62472;-73
2023/08/06 01:34:00;;;;;;;;;;;;;;;25.68;59.54;95762.30;584820;242;67059;-72
2023/08/06 01:36:28;;;;;;;;;;;;;;;25.68;59.95;95760.39;584887;242;64989;-72
2023/08/06 01:38:57;;;;;;;;;;;;;;;25.68;59.59;95770.37;584857;242;64639;-72
2023/08/06 01:41:25;;;;;;;;;;;;;;;25.68;59.59;95789.21;584850;242;67288;-72
2023/08/06 01:43:52;;;;;;;;;;;;;;;25.68;59.51;95783.83;584857;242;66899;-72
2023/08/06 01:46:20;;;;;;;;;;;;;;;25.69;60.61;95769.25;584802;242;64672;-72
2023/08/06 01:48:47;;;;;;;;;;;;;;;25.67;61.84;95766.09;584914;242;67267;-72
2023/08/06 01:51:15;;;;;;;;;;;;;;;25.68;63.13;95762.30;584859;242;64924;-72
2023/08/06 01:53:42;;;;;;;;;;;;;;;25.66;60.24;95757.24;584841;242;64754;-73
2023/08/06 01:56:10;;;;;;;;;;;;;;;25.66;59.74;95738.41;584860;242;67367;-72
2023/08/06 01:58:37;;;;;;;;;;;;;;;25.67;60.09;95750.77;584837;242;66898;-72
2023/08/06 02:01:05;;;;;;;;;;;;;;;25.67;59.96;95763.41;584846;240;62438;-73
2023/08/06 02:03:32;;;;;;;;;;;;;;;25.68;59.66;95768.47;584937;242;64950;-73
2023/08/06 02:06:00;;;;;;;;;;;;;;;25.68;59.70;95767.69;584832;242;64919;-73
2023/08/06 02:08:28;;;;;;;;;;;;;;;25.68;59.72;95765.78;584844;240;64598;-72
2023/08/06 02:10:55;;;;;;;;;;;;;;;25.67;59.78;95760.72;584819;242;67231;-72
2023/08/06 02:13:23;;;;;;;;;;;;;;;25.66;59.80;95748.39;584830;242;64811;-72
2023/08/06 02:15:50;;;;;;;;;;;;;;;25.68;60.94;95752.33;584896;240;62521;-73
2023/08/06 02:18:18;;;;;;;;;;;;;;;25.67;60.98;95747.27;584864;242;64867;-72
2023/08/06 02:20:47;;;;;;;;;;;;;;;25.67;60.01;95741.88;584857;242;64835;-71
2023/08/06 02:23:14;;;;;;;;;;;;;;;25.67;59.92;95734.62;584530;242;63381;-71
2023/08/06 02:25:42;;;;;;;;;;;;;;;25.67;59.93;95733.80;584795;242;64854;-71
2023/08/06 02:28:09;;;;;;;;;;;;;;;25.67;61.37;95739.19;584920;242;64617;-71
2023/08/06 02:30:38;;;;;;;;;;;;;;;25.66;61.30;95746.48;584831;242;65536;-72
2023/08/06 02:33:07;;;;;;;;;;;;;;;25.66;60.68;95745.70;577406;242;68257;-72
2023/08/06 02:35:35;;;;;;;;;;;;;;;25.67;60.45;95733.80;584807;242;67265;-72
2023/08/06 02:38:02;;;;;;;;;;;;;;;25.66;61.49;95730.34;584827;242;65756;-72
2023/08/06 02:40:30;;;;;;;;;;;;;;;25.66;62.63;95716.89;584902;242;64924;-72
2023/08/06 02:42:57;;;;;;;;;;;;;;;25.66;62.34;95716.10;584845;242;64849;-72
2023/08/06 02:45:25;;;;;;;;;;;;;;;25.65;60.80;95714.55;584849;242;64693;-72
2023/08/06 02:47:52;;;;;;;;;;;;;;;25.65;60.02;95714.55;584870;242;67103;-72
2023/08/06 02:50:20;;;;;;;;;;;;;;;25.66;59.89;95705.34;584830;242;67000;-72
2023/08/06 02:52:48;;;;;;;;;;;;;;;25.66;60.01;95724.95;584879;242;62498;-72
2023/08/06 02:55:16;;;;;;;;;;;;;;;25.66;61.13;95724.17;584910;240;64300;-72
2023/08/06 02:57:44;;;;;;;;;;;;;;;25.66;62.75;95713.41;584892;242;66483;-72
2023/08/06 03:00:12;;;;;;;;;;;;;;;25.65;63.38;95715.33;584841;242;64646;-72
2023/08/06 03:02:40;;;;;;;;;;;;;;;25.65;64.76;95704.56;584861;242;64517;-72
2023/08/06 03:05:09;;;;;;;;;;;;;;;25.65;64.80;95690.33;584441;242;44142;-72
2023/08/06 03:07:38;;;;;;;;;;;;;;;25.63;64.15;95717.55;586229;240;43472;-72
2023/08/06 03:10:10;;;;;;;;;;;;;;;25.64;64.59;95729.09;590988;240;45472;-73
2023/08/06 03:12:38;;;;;;;;;;;;;;;25.63;64.10;95711.39;591138;240;66693;-73
2023/08/06 03:15:06;;;;;;;;;;;;;;;25.64;64.97;95731.78;591075;240;62779;-73
2023/08/06 03:17:34;;;;;;;;;;;;;;;25.62;63.41;95731.35;591108;240;67463;-73
2023/08/06 03:20:02;;;;;;;;;;;;;;;25.62;63.51;95725.97;591093;240;67200;-73
2023/08/06 03:22:30;;;;;;;;;;;;;;;25.62;63.45;95734.05;592200;237;63357;-70
2023/08/06 03:24:57;;;;;;;;;;;;;;;25.62;63.87;95728.66;592244;237;64927;-70
2023/08/06 03:27:25;;;;;;;;;;;;;;;25.62;64.55;95748.28;592290;237;67402;-71
2023/08/06 03:29:53;;;;;;;;;;;;;;;25.62;65.04;95739.42;593880;237;64573;-71
2023/08/06 03:32:22;;;;;;;;;;;;;;;25.62;66.04;95739.42;591683;240;67684;-72
2023/08/06 03:34:49;;;;;;;;;;;;;;;25.61;65.05;95748.59;591305;240;66985;-72
2023/08/06 03:37:17;;;;;;;;;;;;;;;25.61;66.30;95748.59;597363;237;65000;-72
2023/08/06 03:39:45;;;;;;;;;;;;;;;25.60;65.48;95747.81;598359;237;64835;-72
2023/08/06 03:42:12;;;;;;;;;;;;;;;25.59;63.12;95756.20;595248;237;64600;-72
2023/08/06 03:44:40;;;;;;;;;;;;;;;25.59;62.83;95757.02;591117;240;62494;-72
2023/08/06 03:47:08;;;;;;;;;;;;;;;25.61;64.84;95756.66;591064;240;67982;-72
2023/08/06 03:49:36;;;;;;;;;;;;;;;25.60;64.87;95755.10;591068;240;67481;-72
2023/08/06 03:52:04;;;;;;;;;;;;;;;25.59;63.96;95756.20;591109;240;64860;-72
2023/08/06 03:54:31;;;;;;;;;;;;;;;25.59;63.95;95765.08;591086;240;64756;-72
2023/08/06 03:56:59;;;;;;;;;;;;;;;25.58;63.44;95754.64;591083;240;66925;-72
2023/08/06 03:59:26;;;;;;;;;;;;;;;25.60;65.72;95763.17;590784;240;64643;-72
2023/08/06 04:01:54;;;;;;;;;;;;;;;25.60;66.11;95765.86;591042;240;67130;-72
2023/08/06 04:04:21;;;;;;;;;;;;;;;25.59;66.26;95766.96;591097;240;64810;-72
2023/08/06 04:06:49;;;;;;;;;;;;;;;25.58;65.36;95760.02;591087;240;64610;-72
2023/08/06 04:09:16;;;;;;;;;;;;;;;25.58;64.81;95757.33;590807;240;64667;-72
2023/08/06 04:11:44;;;;;;;;;;;;;;;25.57;64.21;95745.01;591098;240;66954;-72
2023/08/06 04:14:11;;;;;;;;;;;;;;;25.57;63.74;95734.25;591033;240;65755;-72
2023/08/06 04:16:39;;;;;;;;;;;;;;;25.56;63.66;95728.06;591071;240;67504;-72
2023/08/06 04:19:06;;;;;;;;;;;;;;;25.57;64.29;95745.01;591097;240;67122;-72
2023/08/06 04:21:34;;;;;;;;;;;;;;;25.56;63.67;95748.80;591087;240;64630;-72
2023/08/06 04:24:01;;;;;;;;;;;;;;;25.55;61.44;95753.39;591060;240;67216;-72
2023/08/06 04:26:29;;;;;;;;;;;;;;;25.57;62.82;95756.55;591058;240;66916;-72
2023/08/06 04:28:56;;;;;;;;;;;;;;;25.58;64.78;95752.73;591093;240;64562;-72
2023/08/06 04:31:24;;;;;;;;;;;;;;;25.58;66.01;95762.71;591081;240;67177;-72
2023/08/06 04:33:52;;;;;;;;;;;;;;;25.57;65.93;95751.17;591077;240;64437;-72
2023/08/06 04:36:19;;;;;;;;;;;;;;;25.56;64.67;95748.80;591091;240;64591;-72
2023/08/06 04:38:47;;;;;;;;;;;;;;;25.55;63.99;95750.70;591039;240;67199;-71
2023/08/06 04:41:15;;;;;;;;;;;;;;;25.55;63.55;95748.02;591058;240;64366;-72
2023/08/06 04:43:43;;;;;;;;;;;;;;;25.55;63.39;95747.23;591070;240;62540;-71
2023/08/06 04:46:10;;;;;;;;;;;;;;;25.55;64.54;95731.88;591100;240;65008;-72
2023/08/06 04:48:38;;;;;;;;;;;;;;;25.55;64.34;95731.09;591089;240;66927;-72
2023/08/06 04:51:05;;;;;;;;;;;;;;;25.55;64.73;95731.88;591077;240;64588;-72
2023/08/06 04:53:33;;;;;;;;;;;;;;;25.55;64.36;95741.85;591078;240;65019;-71
2023/08/06 04:56:00;;;;;;;;;;;;;;;25.54;62.69;95734.91;591091;240;64451;-72
2023/08/06 04:58:28;;;;;;;;;;;;;;;25.54;62.56;95734.91;591077;240;62470;-71
2023/08/06 05:00:55;;;;;;;;;;;;;;;25.52;62.80;95727.16;591091;240;64876;-73
2023/08/06 05:03:23;;;;;;;;;;;;;;;25.53;62.67;95719.88;591047;240;68155;-73
2023/08/06 05:05:51;;;;;;;;;;;;;;;25.52;63.62;95719.09;591081;240;64846;-73
2023/08/06 05:08:19;;;;;;;;;;;;;;;25.52;63.11;95727.16;591007;240;67129;-73
2023/08/06 05:10:46;;;;;;;;;;;;;;;25.54;63.44;95726.84;590889;240;64869;-73
2023/08/06 05:13:14;;;;;;;;;;;;;;;25.53;63.30;95717.18;591027;240;64944;-73
2023/08/06 05:15:42;;;;;;;;;;;;;;;25.52;62.82;95707.55;590862;240;67175;-73
2023/08/06 05:18:10;;;;;;;;;;;;;;;25.52;62.43;95719.09;591099;240;67109;-73
2023/08/06 05:20:38;;;;;;;;;;;;;;;25.51;62.99;95714.84;591101;240;62484;-73
2023/08/06 05:23:05;;;;;;;;;;;;;;;25.51;63.03;95714.03;591094;240;66915;-73
2023/08/06 05:25:34;;;;;;;;;;;;;;;25.51;63.59;95712.15;591087;240;66981;-73
2023/08/06 05:28:02;;;;;;;;;;;;;;;25.51;63.25;95714.03;591098;240;64791;-73
2023/08/06 05:30:29;;;;;;;;;;;;;;;25.50;62.44;95710.56;591105;240;65174;-73
2023/08/06 05:32:57;;;;;;;;;;;;;;;25.49;62.07;95700.93;591124;240;66942;-73
2023/08/06 05:35:24;;;;;;;;;;;;;;;25.50;62.61;95702.48;591059;240;62453;-73
2023/08/06 05:37:52;;;;;;;;;;;;;;;25.50;63.15;95693.64;591090;240;64875;-73
2023/08/06 05:40:20;;;;;;;;;;;;;;;25.49;61.87;95695.55;591122;240;66999;-73
2023/08/06 05:42:47;;;;;;;;;;;;;;;25.50;62.10;95701.71;591106;240;64862;-73
2023/08/06 05:45:15;;;;;;;;;;;;;;;25.50;62.18;95712.47;591132;240;64893;-73
2023/08/06 05:47:42;;;;;;;;;;;;;;;25.49;63.28;95706.31;591086;240;64536;-73
2023/08/06 05:50:10;;;;;;;;;;;;;;;25.49;63.30;95711.69;591099;240;64534;-73
2023/08/06 05:52:37;;;;;;;;;;;;;;;25.50;62.34;95696.33;591089;240;66907;-73
2023/08/06 05:55:05;;;;;;;;;;;;;;;25.49;63.46;95700.93;591097;240;67000;-73
2023/08/06 05:57:32;;;;;;;;;;;;;;;25.50;62.97;95715.16;591107;240;64621;-73
2023/08/06 06:00:01;;;;;;;;;;;;;;;25.49;62.80;95733.20;591098;240;67074;-73
2023/08/06 06:02:28;;;;;;;;;;;;;;;25.48;62.16;95728.92;591071;240;67222;-73
2023/08/06 06:04:56;;;;;;;;;;;;;;;25.47;62.15;95733.52;591102;240;64603;-73
2023/08/06 06:07:23;;;;;;;;;;;;;;;25.49;62.24;95721.67;591045;240;67071;-72
2023/08/06 06:09:51;;;;;;;;;;;;;;;25.49;62.42;95727.05;591128;240;66695;-73
2023/08/06 06:12:18;;;;;;;;;;;;;;;25.49;62.79;95714.38;591122;240;64530;-73
2023/08/06 06:14:46;;;;;;;;;;;;;;;25.49;63.39;95710.91;591078;240;67267;-73
2023/08/06 06:17:13;;;;;;;;;;;;;;;25.47;62.31;95695.09;591063;240;67270;-73
2023/08/06 06:19:41;;;;;;;;;;;;;;;25.49;65.15;95686.70;591103;240;65989;-74
2023/08/06 06:22:08;;;;;;;;;;;;;;;25.47;62.53;95693.18;591089;240;67192;-73
2023/08/06 06:24:36;;;;;;;;;;;;;;;25.47;62.67;95689.70;591099;240;64862;-73
2023/08/06 06:27:03;;;;;;;;;;;;;;;25.46;62.97;95686.23;591097;240;62474;-73
2023/08/06 06:29:31;;;;;;;;;;;;;;;25.46;62.34;95702.37;591059;240;64949;-73
2023/08/06 06:31:58;;;;;;;;;;;;;;;25.47;63.05;95706.62;591119;240;64728;-73
2023/08/06 06:34:26;;;;;;;;;;;;;;;25.49;64.25;95708.22;591123;240;62514;-73
2023/08/06 06:36:53;;;;;;;;;;;;;;;25.48;64.47;95712.78;591070;240;64555;-73
2023/08/06 06:39:21;;;;;;;;;;;;;;;25.49;63.69;95718.98;591082;240;64815;-73
2023/08/06 06:41:49;;;;;;;;;;;;;;;25.48;63.84;95720.86;591029;240;62440;-73
2023/08/06 06:44:20;;;;;;;;;;;;;;;25.50;64.15;95742.05;590711;240;49630;-73
2023/08/06 06:46:48;;;;;;;;;;;;;;;25.50;64.29;95736.67;591061;240;67190;-73
2023/08/06 06:49:15;;;;;;;;;;;;;;;25.50;63.86;95745.53;591061;240;64444;-73
2023/08/06 06:51:43;;;;;;;;;;;;;;;25.51;63.79;95762.45;591039;240;67110;-73
2023/08/06 06:54:11;;;;;;;;;;;;;;;25.50;62.76;95755.50;591074;240;67070;-73
2023/08/06 06:56:39;;;;;;;;;;;;;;;25.52;64.02;95742.52;591100;240;62598;-73
2023/08/06 06:59:06;;;;;;;;;;;;;;;25.51;63.38;95712.15;591078;240;64633;-73
2023/08/06 07:01:34;;;;;;;;;;;;;;;25.52;63.85;95704.86;591095;240;64758;-73
2023/08/06 07:04:04;;;;;;;;;;;;;;;25.52;63.45;95710.24;591055;240;62414;-73
2023/08/06 07:06:30;;;;;;;;;;;;;;;25.52;64.44;95711.02;590999;240;66764;-73
2023/08/06 07:08:57;;;;;;;;;;;;;;;25.51;63.64;95704.08;586265;240;66661;-73
2023/08/06 07:11:25;;;;;;;;;;;;;;;25.51;62.98;95697.89;584880;242;62453;-73
2023/08/06 07:13:54;;;;;;;;;;;;;;;25.52;63.13;95702.17;584852;242;66687;-73
2023/08/06 07:16:22;;;;;;;;;;;;;;;25.53;63.84;95709.11;584574;242;66644;-72
2023/08/06 07:18:49;;;;;;;;;;;;;;;25.53;62.67;95717.18;584873;242;64534;-72
2023/08/06 07:21:17;;;;;;;;;;;;;;;25.55;61.18;95728.41;584888;242;64345;-73
2023/08/06 07:23:45;;;;;;;;;;;;;;;25.55;61.80;95736.48;584829;242;64455;-72
2023/08/06 07:26:12;;;;;;;;;;;;;;;25.57;63.84;95729.64;584846;242;64581;-73
2023/08/06 07:28:39;;;;;;;;;;;;;;;25.56;64.07;95711.91;584827;242;67264;-72
2023/08/06 07:31:07;;;;;;;;;;;;;;;25.55;63.06;95712.27;584814;242;67259;-72
2023/08/06 07:33:34;;;;;;;;;;;;;;;25.55;62.85;95725.72;584851;242;62532;-73
2023/08/06 07:36:03;;;;;;;;;;;;;;;25.56;65.21;95727.27;584849;242;64891;-72
2023/08/06 07:38:31;;;;;;;;;;;;;;;25.56;64.63;95716.52;584668;242;64834;-72
2023/08/06 07:40:58;;;;;;;;;;;;;;;25.54;63.98;95714.17;584853;242;62577;-72
2023/08/06 07:43:26;;;;;;;;;;;;;;;25.55;64.04;95714.95;584815;242;64870;-73
2023/08/06 07:45:53;;;;;;;;;;;;;;;25.54;63.53;95713.39;584838;242;64817;-73
2023/08/06 07:48:21;;;;;;;;;;;;;;;25.54;63.00;95718.77;584930;242;62349;-73
2023/08/06 07:50:53;;;;;;;;;;;;;;;25.55;64.48;95721.11;584791;242;64681;-73
2023/08/06 07:53:19;;;;;;;;;;;;;;;25.56;64.98;95727.27;584776;242;66857;-73
2023/08/06 07:55:48;;;;;;;;;;;;;;;25.55;64.70;95721.11;584812;242;65860;-73
2023/08/06 07:58:15;;;;;;;;;;;;;;;25.55;63.77;95725.72;584819;242;67351;-73
2023/08/06 08:00:45;;;;;;;;;;;;;;;25.55;63.14;95731.09;584900;242;66881;-73
2023/08/06 08:03:13;;;;;;;;;;;;;;;25.55;63.82;95729.19;584800;240;64742;-73
2023/08/06 08:05:41;;;;;;;;;;;;;;;25.56;64.15;95721.89;584714;242;67873;-73
2023/08/06 08:08:09;;;;;;;;;;;;;;;25.57;64.58;95723.48;587176;240;64824;-71
2023/08/06 08:10:38;;;;;;;;;;;;;;;25.56;63.96;95721.89;591036;240;62546;-71
2023/08/06 08:13:05;;;;;;;;;;;;;;;25.57;63.87;95742.31;591067;240;67341;-71
2023/08/06 08:15:33;;;;;;;;;;;;;;;25.57;62.62;95739.63;591044;240;67125;-71
2023/08/06 08:18:00;;;;;;;;;;;;;;;25.56;61.19;95732.66;591034;240;64625;-71
2023/08/06 08:20:31;;;;;;;;;;;;;;;25.57;61.74;95718.89;590995;240;67063;-71
2023/08/06 08:22:57;;;;;;;;;;;;;;;25.58;62.52;95716.98;590982;240;66985;-72
2023/08/06 08:25:24;;;;;;;;;;;;;;;25.59;64.49;95723.92;591020;240;64693;-72
2023/08/06 08:27:52;;;;;;;;;;;;;;;25.58;64.91;95725.83;591067;240;64884;-72
2023/08/06 08:30:20;;;;;;;;;;;;;;;25.58;64.80;95733.12;591039;240;65016;-72
2023/08/06 08:32:48;;;;;;;;;;;;;;;25.57;64.46;95726.95;591062;240;64775;-72
2023/08/06 08:35:16;;;;;;;;;;;;;;;25.57;64.72;95723.48;591007;240;65950;-71
2023/08/06 08:37:44;;;;;;;;;;;;;;;25.58;64.60;95722.36;591073;240;64387;-71
2023/08/06 08:40:11;;;;;;;;;;;;;;;25.57;63.35;95734.25;591093;240;62496;-72
2023/08/06 08:42:39;;;;;;;;;;;;;;;25.57;61.98;95726.17;591024;240;67105;-72
2023/08/06 08:45:08;;;;;;;;;;;;;;;25.58;62.06;95711.59;590997;240;68201;-71
2023/08/06 08:47:36;;;;;;;;;;;;;;;25.58;62.47;95712.38;590918;240;62481;-72
2023/08/06 08:50:05;;;;;;;;;;;;;;;25.59;61.51;95713.16;591059;240;67148;-72
2023/08/06 08:52:34;;;;;;;;;;;;;;;25.58;59.78;95714.28;591141;240;67339;-72
2023/08/06 08:55:02;;;;;;;;;;;;;;;25.60;59.78;95712.06;591066;240;64739;-72
2023/08/06 08:57:30;;;;;;;;;;;;;;;25.60;59.76;95712.84;591033;240;67208;-72
2023/08/06 08:59:57;;;;;;;;;;;;;;;25.62;61.35;95731.35;591066;240;66913;-72
2023/08/06 09:02:26;;;;;;;;;;;;;;;25.61;62.27;95735.92;591077;240;62491;-71
2023/08/06 09:04:54;;;;;;;;;;;;;;;25.61;64.83;95738.61;591122;240;64598;-72
2023/08/06 09:07:22;;;;;;;;;;;;;;;25.62;65.23;95763.64;591031;240;64864;-72
2023/08/06 09:09:50;;;;;;;;;;;;;;;25.61;65.30;95762.05;591018;240;64582;-71
2023/08/06 09:12:18;;;;;;;;;;;;;;;25.61;66.34;95762.05;591069;240;65111;-72
2023/08/06 09:14:45;;;;;;;;;;;;;;;25.58;63.23;95763.49;590809;240;67102;-72
2023/08/06 09:17:13;;;;;;;;;;;;;;;25.60;64.45;95768.55;591048;240;64728;-72
2023/08/06 09:19:48;;;;;;;;;;;;;;;25.60;65.99;95766.64;591125;240;67165;-72
2023/08/06 09:22:15;;;;;;;;;;;;;;;25.60;66.63;95777.41;591041;240;67862;-71
2023/08/06 09:24:43;;;;;;;;;;;;;;;25.58;64.79;95776.16;591069;240;64610;-71
2023/08/06 09:27:15;;;;;;;;;;;;;;;25.58;66.39;95778.84;591110;240;67036;-71
2023/08/06 09:29:43;;;;;;;;;;;;;;;25.59;66.88;95793.86;591079;240;66966;-71
2023/08/06 09:32:10;;;;;;;;;;;;;;;25.57;65.54;95783.45;591108;240;62760;-71
2023/08/06 09:34:40;;;;;;;;;;;;;;;25.58;66.14;95784.23;591045;240;64948;-71
2023/08/06 09:37:09;;;;;;;;;;;;;;;25.57;65.99;95788.05;591072;240;67227;-71
2023/08/06 09:39:38;;;;;;;;;;;;;;;25.57;65.44;95799.59;591052;240;62474;-71
2023/08/06 09:42:06;;;;;;;;;;;;;;;25.57;66.23;95804.97;591062;240;67160;-71
2023/08/06 09:44:34;;;;;;;;;;;;;;;25.57;66.40;95812.26;591061;240;66840;-71
2023/08/06 09:47:03;;;;;;;;;;;;;;;25.56;65.14;95813.36;591086;240;62803;-71
2023/08/06 09:49:35;;;;;;;;;;;;;;;25.56;64.40;95814.14;591576;237;67075;-71
2023/08/06 09:52:03;;;;;;;;;;;;;;;25.55;64.34;95823.34;591862;237;66593;-72
2023/08/06 09:54:30;;;;;;;;;;;;;;;25.56;65.28;95826.81;592790;237;64689;-71
2023/08/06 09:56:58;;;;;;;;;;;;;;;25.57;67.04;95815.73;592403;237;67244;-72
2023/08/06 09:59:26;;;;;;;;;;;;;;;25.56;67.42;95814.14;594606;237;67246;-71
2023/08/06 10:01:55;;;;;;;;;;;;;;;25.56;66.85;95811.45;591775;240;64575;-71
2023/08/06 10:04:23;;;;;;;;;;;;;;;25.55;66.19;95809.88;592832;237;67256;-72
2023/08/06 10:06:52;;;;;;;;;;;;;;;25.54;64.67;95812.92;591793;240;66941;-71
2023/08/06 10:09:20;;;;;;;;;;;;;;;25.55;66.04;95804.50;585580;240;64646;-71
2023/08/06 10:11:54;;;;;;;;;;;;;;;25.56;66.60;95792.62;586068;240;66946;-72
2023/08/06 10:14:23;;;;;;;;;;;;;;;25.54;64.72;95791.41;585591;240;64967;-72
2023/08/06 10:16:51;;;;;;;;;;;;;;;25.54;64.12;95789.49;585021;242;62707;-72
2023/08/06 10:19:19;;;;;;;;;;;;;;;25.54;64.02;95791.41;585021;242;64216;-72
2023/08/06 10:22:05;;;;;;;;;;;;;;;25.55;63.87;95790.27;585017;242;67004;-72
2023/08/06 10:24:34;;;;;;;;;;;;;;;25.56;66.82;95792.62;585031;242;64644;-73
2023/08/06 10:27:01;;;;;;;;;;;;;;;25.56;67.01;95792.62;584411;242;65193;-73
2023/08/06 10:29:38;;;;;;;;;;;;;;;25.56;67.07;95794.53;585022;242;66894;-73
2023/08/06 10:32:06;;;;;;;;;;;;;;;25.56;67.24;95797.22;585027;242;64699;-72
2023/08/06 10:34:51;;;;;;;;;;;;;;;25.54;67.24;95783.33;585010;242;67139;-72
2023/08/06 10:37:19;;;;;;;;;;;;;;;25.55;66.92;95787.59;585019;242;65057;-72
2023/08/06 10:39:53;;;;;;;;;;;;;;;25.54;67.01;95786.02;584996;242;64814;-72
2023/08/06 10:42:21;;;;;;;;;;;;;;;25.54;66.91;95791.41;585039;240;66913;-72
2023/08/06 10:45:07;;;;;;;;;;;;;;;25.52;66.11;95785.56;585071;242;67110;-72
2023/08/06 10:47:36;;;;;;;;;;;;;;;25.52;66.06;95785.56;585028;242;64532;-72
2023/08/06 10:50:03;;;;;;;;;;;;;;;25.51;65.31;95784.77;584952;240;67104;-72
2023/08/06 10:52:31;;;;;;;;;;;;;;;25.52;66.31;95780.95;584774;242;66956;-72
2023/08/06 10:54:58;;;;;;;;;;;;;;;25.53;66.93;95773.67;585020;242;64501;-72
2023/08/06 10:57:25;;;;;;;;;;;;;;;25.52;66.85;95770.20;585024;242;67177;-72
2023/08/06 10:59:53;;;;;;;;;;;;;;;25.52;64.93;95774.80;585010;242;64790;-72
2023/08/06 11:02:20;;;;;;;;;;;;;;;25.51;64.41;95779.40;584942;242;62417;-72
2023/08/06 11:04:48;;;;;;;;;;;;;;;25.52;64.03;95782.87;585046;242;64888;-72
2023/08/06 11:07:16;;;;;;;;;;;;;;;25.52;63.79;95789.03;585608;239;64295;-71
2023/08/06 11:09:44;;;;;;;;;;;;;;;25.54;64.97;95788.71;593756;239;64676;-72
2023/08/06 11:12:11;;;;;;;;;;;;;;;25.55;66.65;95777.61;593782;239;66777;-72
2023/08/06 11:14:39;;;;;;;;;;;;;;;25.55;65.87;95776.83;593749;239;66784;-72
2023/08/06 11:17:06;;;;;;;;;;;;;;;25.53;65.56;95771.77;593727;239;64685;-72
2023/08/06 11:19:34;;;;;;;;;;;;;;;25.52;64.43;95769.42;593743;239;66864;-72
2023/08/06 11:22:02;;;;;;;;;;;;;;;25.52;63.72;95774.80;593770;239;66757;-72
2023/08/06 11:24:29;;;;;;;;;;;;;;;25.53;64.74;95779.05;593792;239;62494;-72
2023/08/06 11:26:58;;;;;;;;;;;;;;;25.54;64.42;95772.57;593750;239;66788;-72
2023/08/06 11:29:26;;;;;;;;;;;;;;;25.54;64.27;95783.33;593697;239;64873;-72
2023/08/06 11:31:53;;;;;;;;;;;;;;;25.54;65.44;95778.73;593757;239;62819;-72
2023/08/06 11:34:21;;;;;;;;;;;;;;;25.54;65.48;95788.71;593736;239;66752;-72
2023/08/06 11:36:48;;;;;;;;;;;;;;;25.54;65.07;95794.09;593771;239;66887;-72
2023/08/06 11:39:16;;;;;;;;;;;;;;;25.55;65.79;95792.97;593697;239;64592;-72
2023/08/06 11:41:44;;;;;;;;;;;;;;;25.55;66.65;95793.75;593724;239;65093;-72
2023/08/06 11:44:13;;;;;;;;;;;;;;;25.53;65.90;95787.13;593702;239;67988;-72
2023/08/06 11:46:55;;;;;;;;;;;;;;;25.56;66.07;95786.45;593727;239;63304;-72
2023/08/06 11:49:47;;;;;;;;;;;;;;;25.54;65.88;95789.49;593754;239;65096;-73
2023/08/06 11:52:13;;;;;;;;;;;;;;;25.52;65.69;95791.72;579882;244;64813;-73
2023/08/06 11:54:40;;;;;;;;;;;;;;;25.52;64.08;95780.95;577643;244;62150;-73
2023/08/06 11:57:08;;;;;;;;;;;;;;;25.53;62.71;95789.81;586019;242;64939;-73
2023/08/06 11:59:37;;;;;;;;;;;;;;;25.54;62.21;95792.19;590140;240;64820;-73
2023/08/06 12:02:10;;;;;;;;;;;;;;;25.54;61.88;95783.33;590161;240;64731;-71
2023/08/06 12:04:36;;;;;;;;;;;;;;;25.55;63.12;95791.05;589938;240;67066;-73
2023/08/06 12:07:09;;;;;;;;;;;;;;;25.54;64.46;95786.80;586266;240;66890;-73
2023/08/06 12:09:38;;;;;;;;;;;;;;;25.55;64.29;95787.59;590154;240;64668;-73
2023/08/06 12:12:05;;;;;;;;;;;;;;;25.53;64.28;95787.13;590146;240;67101;-73
2023/08/06 12:14:33;;;;;;;;;;;;;;;25.54;64.35;95786.02;590176;240;67074;-73
2023/08/06 12:17:00;;;;;;;;;;;;;;;25.54;64.10;95788.71;590139;240;64766;-73
2023/08/06 12:19:28;;;;;;;;;;;;;;;25.54;64.20;95783.33;590139;240;67077;-73
2023/08/06 12:21:55;;;;;;;;;;;;;;;25.53;64.32;95782.52;590175;240;66759;-73
2023/08/06 12:24:23;;;;;;;;;;;;;;;25.54;64.26;95788.71;590153;240;64581;-73
2023/08/06 12:26:50;;;;;;;;;;;;;;;25.52;64.13;95791.72;590145;240;67067;-73
2023/08/06 12:29:17;;;;;;;;;;;;;;;25.53;64.03;95795.19;590135;240;67249;-73
2023/08/06 12:31:45;;;;;;;;;;;;;;;25.54;64.47;95799.47;590187;240;62431;-74
2023/08/06 12:34:12;;;;;;;;;;;;;;;25.54;63.68;95794.09;590153;240;67398;-74
2023/08/06 12:36:40;;;;;;;;;;;;;;;25.55;61.53;95792.97;590133;240;64833;-74
2023/08/06 12:39:07;;;;;;;;;;;;;;;25.55;61.35;95782.20;590113;240;62460;-75
2023/08/06 12:41:35;;;;;;;;;;;;;;;25.55;61.43;95776.83;590136;240;64935;-74
2023/08/06 12:44:02;;;;;;;;;;;;;;;25.57;62.13;95782.67;590187;240;64862;-74
2023/08/06 12:46:30;;;;;;;;;;;;;;;25.57;60.82;95782.67;590137;240;64643;-74
2023/08/06 12:48:58;;;;;;;;;;;;;;;25.56;60.87;95778.38;590163;240;66791;-75
2023/08/06 12:51:25;;;;;;;;;;;;;;;25.57;61.04;95779.98;590142;240;66975;-75
2023/08/06 12:53:53;;;;;;;;;;;;;;;25.57;60.52;95774.59;590127;240;64811;-74